.
WxDataArchive / Data Records for 2016-02-11
2016-02-10 February 2016 2016-02-12

Data Records for Thursday, 11 February 2016

Time	Temp	Chill	HIndex	Humid	Dewpt	 Wind 	HiWind	WindDir	Rain 	Barom
-----	----	-----	------	-----	-----	------	------	-------	-----	-----
00:00	14.0	14.0	14.0	70	6.0	0	1	270	0.00	30.126 
00:05	14.1	14.1	14.1	70	6.1	1	2	270	0.00	30.126 
00:10	14.1	14.1	14.1	70	6.1	1	2	270	0.00	30.126 
00:15	14.1	14.1	14.1	71	6.5	0	2	270	0.00	30.127 
00:20	14.1	14.1	14.1	71	6.5	0	2	270	0.00	30.127 
00:25	14.3	14.3	14.3	72	7.0	0	2	270	0.00	30.127 
00:30	14.3	14.3	14.3	72	7.0	0	3	270	0.00	30.127 
00:35	14.4	14.4	14.4	72	7.1	0	1	270	0.00	30.127 
00:40	14.4	14.4	14.4	73	7.4	0	2	270	0.00	30.127 
00:45	14.4	14.4	14.4	73	7.4	0	2	270	0.00	30.124 
00:50	14.6	14.6	14.6	73	7.5	0	2	270	0.00	30.124 
00:55	14.6	14.6	14.6	73	7.5	0	2	270	0.00	30.124 
01:00	14.6	14.6	14.6	73	7.5	1	2	270	0.00	30.126 
01:05	14.6	14.6	14.6	73	7.5	0	3	270	0.00	30.126 
01:10	14.8	14.8	14.8	73	7.7	0	2	270	0.00	30.126 
01:15	14.8	14.8	14.8	73	7.7	0	2	270	0.00	30.126 
01:20	14.8	14.8	14.8	73	7.7	0	2	270	0.00	30.126 
01:25	14.8	14.8	14.8	73	7.7	0	2	270	0.00	30.126 
01:30	14.8	14.8	14.8	74	8.0	1	2	270	0.00	30.126 
01:35	14.8	14.8	14.8	74	8.0	0	2	270	0.00	30.126 
01:40	14.8	14.8	14.8	75	8.3	0	2	270	0.00	30.126 
01:45	14.8	14.8	14.8	75	8.3	0	1	270	0.00	30.121 
01:50	14.8	14.8	14.8	75	8.3	0	1	270	0.00	30.121 
01:55	14.9	14.9	14.9	76	8.7	0	1	270	0.00	30.121 
02:00	14.9	14.9	14.9	76	8.7	0	2	270	0.00	30.118 
02:05	14.9	14.9	14.9	76	8.7	0	1	270	0.00	30.118 
02:10	15.1	15.1	15.1	77	9.2	0	1	270	0.00	30.118 
02:15	15.1	15.1	15.1	77	9.2	0	1	270	0.00	30.120 
02:20	14.9	14.9	14.9	77	9.0	0	1	270	0.00	30.120 
02:25	14.9	14.9	14.9	77	9.0	0	1	270	0.00	30.120 
02:30	14.9	14.9	14.9	77	9.0	0	1	270	0.00	30.118 
02:35	14.9	14.9	14.9	77	9.0	0	1	270	0.00	30.118 
02:40	14.9	14.9	14.9	77	9.0	0	1	270	0.00	30.118 
02:45	14.9	14.9	14.9	78	9.3	0	1	270	0.00	30.121 
02:50	14.9	14.9	14.9	78	9.3	0	1	270	0.00	30.121 
02:55	14.9	14.9	14.9	78	9.3	0	1	270	0.00	30.121 
03:00	14.9	14.9	14.9	78	9.3	0	1	270	0.00	30.125 
03:05	14.9	14.9	14.9	79	9.6	0	1	270	0.00	30.125 
03:10	14.9	14.9	14.9	78	9.3	0	2	270	0.00	30.125 
03:15	14.9	14.9	14.9	79	9.6	0	1	270	0.00	30.132 
03:20	14.9	14.9	14.9	79	9.6	0	2	270	0.00	30.132 
03:25	14.9	14.9	14.9	79	9.6	0	2	270	0.00	30.132 
03:30	14.9	14.9	14.9	79	9.6	1	2	270	0.00	30.139 
03:35	14.9	14.9	14.9	79	9.6	0	2	270	0.00	30.139 
03:40	14.9	14.9	14.9	80	9.9	0	2	270	0.00	30.139 
03:45	14.9	14.9	14.9	80	9.9	0	1	270	0.00	30.142 
03:50	14.8	14.8	14.8	80	9.8	0	2	270	0.00	30.142 
03:55	14.8	14.8	14.8	80	9.8	0	2	270	0.00	30.142 
04:00	14.6	14.6	14.6	80	9.6	1	3	270	0.00	30.140 
04:05	14.6	14.6	14.6	80	9.6	0	2	270	0.00	30.140 
04:10	14.4	14.4	14.4	80	9.4	0	2	270	0.00	30.140 
04:15	14.4	14.4	14.4	80	9.4	0	3	270	0.00	30.148 
04:20	14.4	14.4	14.4	80	9.4	0	2	270	0.00	30.148 
04:25	14.4	14.4	14.4	80	9.4	0	3	270	0.00	30.148 
04:30	14.4	14.4	14.4	80	9.4	0	2	270	0.00	30.148 
04:35	14.4	14.4	14.4	80	9.4	0	2	270	0.00	30.148 
04:40	14.4	14.4	14.4	80	9.4	0	3	315	0.00	30.148 
04:45	14.4	14.4	14.4	79	9.1	1	4	338	0.00	30.149 
04:50	14.3	14.3	14.3	79	9.0	0	2	338	0.00	30.149 
04:55	14.3	14.3	14.3	79	9.0	1	3	338	0.00	30.149 
05:00	14.3	14.3	14.3	79	9.0	1	5	292	0.00	30.161 
05:05	14.3	14.3	14.3	79	9.0	0	2	315	0.00	30.161 
05:10	14.3	14.3	14.3	79	9.0	0	1	315	0.00	30.161 
05:15	14.3	14.3	14.3	79	9.0	0	1	315	0.00	30.165 
05:20	14.3	14.3	14.3	80	9.3	0	1	315	0.00	30.165 
05:25	14.3	14.3	14.3	80	9.3	0	2	315	0.00	30.165 
05:30	14.3	14.3	14.3	80	9.3	0	1	315	0.00	30.165 
05:35	14.4	14.4	14.4	80	9.4	0	2	315	0.00	30.165 
05:40	14.4	14.4	14.4	80	9.4	0	1	315	0.00	30.165 
05:45	14.4	14.4	14.4	80	9.4	0	1	315	0.00	30.172 
05:50	14.4	14.4	14.4	80	9.4	0	1	315	0.00	30.172 
05:55	14.3	14.3	14.3	80	9.3	0	1	315	0.00	30.172 
06:00	14.3	14.3	14.3	80	9.3	0	1	315	0.00	30.181 
06:05	14.3	14.3	14.3	80	9.3	0	2	315	0.00	30.181 
06:10	14.3	14.3	14.3	80	9.3	0	1	315	0.00	30.181 
06:15	14.1	14.1	14.1	80	9.1	0	1	315	0.00	30.187 
06:20	14.1	14.1	14.1	80	9.1	0	2	315	0.00	30.187 
06:25	14.0	14.0	14.0	80	9.0	0	1	315	0.00	30.187 
06:30	14.0	14.0	14.0	80	9.0	0	1	315	0.00	30.198 
06:35	14.0	14.0	14.0	80	9.0	0	1	315	0.00	30.198 
06:40	14.0	14.0	14.0	80	9.0	0	1	315	0.00	30.198 
06:45	14.0	14.0	14.0	80	9.0	0	2	315	0.00	30.198 
06:50	13.8	13.8	13.8	80	8.8	0	1	315	0.00	30.198 
06:55	13.6	13.6	13.6	80	8.6	0	1	315	0.00	30.198 
07:00	13.6	13.6	13.6	80	8.6	0	2	315	0.00	30.206 
07:05	13.6	13.6	13.6	81	8.9	0	0	---	0.00	30.206 
07:10	13.8	13.8	13.8	81	9.1	0	1	315	0.00	30.206 
07:15	13.8	13.8	13.8	81	9.1	0	1	315	0.00	30.213 
07:20	13.8	13.8	13.8	81	9.1	0	1	315	0.00	30.213 
07:25	14.0	14.0	14.0	81	9.3	0	1	315	0.00	30.213 
07:30	14.0	14.0	14.0	81	9.3	0	1	315	0.00	30.217 
07:35	14.0	14.0	14.0	81	9.3	0	2	315	0.00	30.217 
07:40	14.0	14.0	14.0	81	9.3	0	1	315	0.00	30.217 
07:45	14.1	14.1	14.1	81	9.4	0	2	315	0.00	30.226 
07:50	14.1	14.1	14.1	81	9.4	0	1	315	0.00	30.226 
07:55	14.1	14.1	14.1	81	9.4	0	1	315	0.00	30.226 
08:00	14.1	14.1	14.1	81	9.4	0	0	---	0.00	30.230 
08:05	14.3	14.3	14.3	81	9.6	0	1	315	0.00	30.230 
08:10	14.3	14.3	14.3	81	9.6	0	0	---	0.00	30.230 
08:15	14.3	14.3	14.3	81	9.6	0	1	315	0.00	30.234 
08:20	14.4	14.4	14.4	81	9.7	0	1	315	0.00	30.234 
08:25	14.6	14.6	14.6	81	9.9	0	1	315	0.00	30.234 
08:30	14.6	14.6	14.6	81	9.9	0	1	315	0.00	30.245 
08:35	14.8	14.8	14.8	81	10.0	0	1	315	0.00	30.245 
08:40	14.8	14.8	14.8	81	10.0	0	1	315	0.00	30.245 
08:45	14.9	14.9	14.9	81	10.1	0	1	315	0.00	30.248 
08:50	14.9	14.9	14.9	81	10.1	0	2	315	0.00	30.248 
08:55	15.1	15.1	15.1	81	10.3	0	1	315	0.00	30.248 
09:00	15.2	15.2	15.2	80	10.2	0	1	315	0.00	30.259 
09:05	15.2	15.2	15.2	80	10.2	0	1	315	0.00	30.259 
09:10	15.4	15.4	15.4	80	10.4	0	1	315	0.00	30.259 
09:15	15.4	15.4	15.4	80	10.4	0	1	315	0.00	30.262 
09:20	15.6	15.6	15.6	79	10.3	0	1	315	0.00	30.262 
09:25	15.9	15.9	15.9	79	10.6	0	0	---	0.00	30.262 
09:30	16.1	16.1	16.1	79	10.8	0	1	315	0.00	30.264 
09:35	16.2	16.2	16.2	79	10.9	0	1	315	0.00	30.264 
09:40	16.2	16.2	16.2	78	10.6	0	1	315	0.00	30.264 
09:45	16.4	16.4	16.4	77	10.5	0	2	315	0.00	30.273 
09:50	16.2	16.2	16.2	76	10.0	0	3	315	0.00	30.273 
09:55	16.5	16.5	16.5	75	10.0	0	1	315	0.00	30.273 
10:00	16.5	16.5	16.5	74	9.7	0	2	315	0.00	30.275 
10:05	16.7	16.7	16.7	73	9.6	0	2	315	0.00	30.275 
10:10	17.2	17.2	17.2	73	10.1	0	1	315	0.00	30.275 
10:15	17.0	17.0	17.0	70	8.9	0	3	315	0.00	30.281 
10:20	17.2	17.2	17.2	69	8.8	0	3	315	0.00	30.281 
10:25	17.3	17.3	17.3	69	8.9	0	3	315	0.00	30.281 
10:30	17.7	17.7	17.7	69	9.3	0	2	315	0.00	30.285 
10:35	17.7	17.7	17.7	69	9.3	0	1	315	0.00	30.285 
10:40	17.8	17.8	17.8	69	9.4	0	2	315	0.00	30.285 
10:45	17.8	17.8	17.8	67	8.7	0	1	315	0.00	30.291 
10:50	18.0	18.0	18.0	67	8.9	0	3	315	0.00	30.291 
10:55	18.1	18.1	18.1	67	9.0	1	2	315	0.00	30.291 
11:00	18.3	18.3	18.3	66	8.9	0	4	315	0.00	30.292 
11:05	18.6	18.6	18.6	66	9.2	0	4	315	0.00	30.292 
11:10	18.6	18.6	18.6	64	8.5	0	3	315	0.00	30.292 
11:15	18.8	18.8	18.8	64	8.7	0	2	315	0.00	30.297 
11:20	18.8	18.8	18.8	63	8.3	0	2	315	0.00	30.297 
11:25	18.9	18.9	18.9	65	9.1	0	2	315	0.00	30.297 
11:30	19.2	19.2	19.2	64	9.0	0	3	315	0.00	30.296 
11:35	19.4	19.4	19.4	64	9.2	0	2	315	0.00	30.296 
11:40	19.4	19.4	19.4	62	8.5	1	3	315	0.00	30.296 
11:45	19.2	19.2	19.2	61	8.0	1	3	0	0.00	30.293 
11:50	19.4	19.4	19.4	62	8.5	0	2	0	0.00	30.293 
11:55	19.4	19.4	19.4	62	8.5	0	2	0	0.00	30.293 
12:00	19.4	19.4	19.4	62	8.5	0	2	0	0.00	30.294 
12:05	19.1	19.1	19.1	62	8.3	0	2	315	0.00	30.294 
12:10	19.2	19.2	19.2	64	9.0	0	1	315	0.00	30.294 
12:15	19.9	19.9	19.9	66	10.4	0	2	315	0.00	30.288 
12:20	20.5	20.5	20.5	66	11.0	1	3	315	0.00	30.288 
12:25	20.8	20.8	20.8	65	10.9	1	3	315	0.00	30.288 
12:30	21.1	21.1	21.1	65	11.2	0	2	292	0.00	30.281 
12:35	21.4	21.4	21.4	63	10.8	0	2	248	0.00	30.281 
12:40	21.4	21.4	21.4	63	10.8	0	2	248	0.00	30.281 
12:45	21.4	21.4	21.4	59	9.3	0	2	248	0.00	30.278 
12:50	21.0	21.0	21.0	54	7.0	1	4	315	0.00	30.278 
12:55	20.8	20.8	20.8	55	7.2	0	3	292	0.00	30.278 
13:00	20.6	20.6	20.6	57	7.8	1	4	338	0.00	30.276 
13:05	20.6	20.6	20.6	54	6.6	0	3	338	0.00	30.276 
13:10	20.6	20.6	20.6	52	5.8	0	3	248	0.00	30.276 
13:15	20.8	20.8	20.8	51	5.6	1	3	248	0.00	30.273 
13:20	20.8	20.8	20.8	50	5.1	1	5	338	0.00	30.273 
13:25	21.0	21.0	21.0	52	6.2	1	3	315	0.00	30.273 
13:30	21.4	21.4	21.4	50	5.7	1	3	315	0.00	30.272 
13:35	21.6	21.6	21.6	49	5.4	0	2	315	0.00	30.272 
13:40	21.9	21.9	21.9	49	5.7	0	2	315	0.00	30.272 
13:45	22.1	22.1	22.1	49	5.9	0	3	315	0.00	30.272 
13:50	21.9	21.9	21.9	47	4.8	1	2	315	0.00	30.272 
13:55	21.9	21.9	21.9	48	5.3	2	4	315	0.00	30.272 
14:00	21.9	21.9	21.9	49	5.7	1	2	315	0.00	30.272 
14:05	22.1	22.1	22.1	49	5.9	0	1	315	0.00	30.272 
14:10	22.2	22.2	22.2	49	6.0	1	2	315	0.00	30.272 
14:15	22.1	22.1	22.1	48	5.4	0	4	315	0.00	30.271 
14:20	22.2	22.2	22.2	49	6.0	0	2	315	0.00	30.271 
14:25	22.4	22.4	22.4	48	5.7	1	3	315	0.00	30.271 
14:30	22.4	22.4	22.4	48	5.7	1	3	292	0.00	30.271 
14:35	22.2	22.2	22.2	47	5.1	1	3	292	0.00	30.271 
14:40	22.2	22.2	22.2	47	5.1	1	3	315	0.00	30.271 
14:45	22.2	22.2	22.2	46	4.6	1	5	270	0.00	30.271 
14:50	22.1	22.1	22.1	45	4.0	1	4	270	0.00	30.271 
14:55	22.2	22.2	22.2	46	4.6	1	4	270	0.00	30.271 
15:00	22.4	22.4	22.4	46	4.8	1	3	292	0.00	30.273 
15:05	22.4	22.4	22.4	45	4.3	1	3	292	0.00	30.273 
15:10	22.5	22.5	22.5	44	3.9	1	5	292	0.00	30.273 
15:15	22.5	22.5	22.5	45	4.4	1	5	315	0.00	30.272 
15:20	22.9	22.9	22.9	45	4.8	1	4	248	0.00	30.272 
15:25	22.7	22.7	22.7	43	3.6	2	4	270	0.00	30.272 
15:30	22.4	22.4	22.4	44	3.8	1	4	270	0.00	30.274 
15:35	22.4	22.4	22.4	45	4.3	1	3	270	0.00	30.274 
15:40	22.4	22.4	22.4	45	4.3	1	3	270	0.00	30.274 
15:45	22.4	22.4	22.4	45	4.3	1	3	270	0.00	30.273 
15:50	22.4	22.4	22.4	46	4.8	1	4	338	0.00	30.273 
15:55	22.2	22.2	22.2	46	4.6	1	3	292	0.00	30.273 
16:00	22.2	22.2	22.2	46	4.6	1	3	315	0.00	30.277 
16:05	22.5	22.5	22.5	46	4.9	0	4	315	0.00	30.277 
16:10	22.5	22.5	22.5	45	4.4	0	3	315	0.00	30.277 
16:15	22.5	22.5	22.5	45	4.4	1	3	270	0.00	30.283 
16:20	22.5	22.5	22.5	44	3.9	1	4	270	0.00	30.283 
16:25	22.5	22.5	22.5	45	4.4	1	4	248	0.00	30.283 
16:30	22.4	22.4	22.4	46	4.8	1	4	315	0.00	30.284 
16:35	22.2	22.2	22.2	46	4.6	2	5	338	0.00	30.284 
16:40	22.1	22.1	22.1	46	4.5	0	2	338	0.00	30.284 
16:45	22.1	22.1	22.1	46	4.5	1	3	338	0.00	30.283 
16:50	22.1	22.1	22.1	47	5.0	1	2	292	0.00	30.283 
16:55	22.1	22.1	22.1	48	5.4	1	4	292	0.00	30.283 
17:00	21.9	21.9	21.9	47	4.8	1	3	315	0.00	30.287 
17:05	21.9	21.9	21.9	46	4.3	0	2	315	0.00	30.287 
17:10	21.9	21.9	21.9	45	3.9	0	2	292	0.00	30.287 
17:15	21.9	21.9	21.9	46	4.3	0	2	292	0.00	30.287 
17:20	21.9	21.9	21.9	48	5.3	0	1	292	0.00	30.287 
17:25	21.9	21.9	21.9	50	6.1	0	2	292	0.00	30.287 
17:30	21.8	21.8	21.8	51	6.5	0	1	292	0.00	30.286 
17:35	21.8	21.8	21.8	50	6.1	0	1	292	0.00	30.286 
17:40	21.8	21.8	21.8	49	5.6	0	2	292	0.00	30.286 
17:45	21.8	21.8	21.8	49	5.6	0	2	292	0.00	30.288 
17:50	21.6	21.6	21.6	49	5.4	0	2	292	0.00	30.288 
17:55	21.6	21.6	21.6	49	5.4	0	2	292	0.00	30.288 
18:00	21.4	21.4	21.4	49	5.2	0	1	292	0.00	30.292 
18:05	21.4	21.4	21.4	49	5.2	0	1	292	0.00	30.292 
18:10	21.3	21.3	21.3	49	5.2	0	1	292	0.00	30.292 
18:15	21.3	21.3	21.3	50	5.6	0	1	292	0.00	30.300 
18:20	21.4	21.4	21.4	53	7.0	0	1	292	0.00	30.300 
18:25	21.3	21.3	21.3	55	7.7	0	3	292	0.00	30.300 
18:30	21.0	21.0	21.0	60	9.3	1	3	292	0.00	30.305 
18:35	20.6	20.6	20.6	62	9.7	0	2	292	0.00	30.305 
18:40	20.5	20.5	20.5	63	9.9	0	0	---	0.00	30.305 
18:45	20.5	20.5	20.5	64	10.3	0	0	---	0.00	30.308 
18:50	20.5	20.5	20.5	62	9.6	0	2	292	0.00	30.308 
18:55	20.5	20.5	20.5	60	8.9	0	2	292	0.00	30.308 
19:00	20.3	20.3	20.3	58	7.9	0	2	292	0.00	30.314 
19:05	20.2	20.2	20.2	58	7.8	0	1	292	0.00	30.314 
19:10	19.9	19.9	19.9	59	7.9	0	1	292	0.00	30.314 
19:15	19.7	19.7	19.7	59	7.7	0	1	292	0.00	30.318 
19:20	19.5	19.5	19.5	60	7.9	0	1	292	0.00	30.318 
19:25	19.4	19.4	19.4	61	8.2	0	1	292	0.00	30.318 
19:30	19.2	19.2	19.2	62	8.3	0	0	---	0.00	30.320 
19:35	19.1	19.1	19.1	62	8.3	0	1	292	0.00	30.320 
19:40	19.1	19.1	19.1	63	8.6	0	0	---	0.00	30.320 
19:45	18.9	18.9	18.9	63	8.4	0	0	---	0.00	30.319 
19:50	18.8	18.8	18.8	64	8.7	0	0	---	0.00	30.319 
19:55	18.6	18.6	18.6	64	8.5	0	1	292	0.00	30.319 
20:00	18.4	18.4	18.4	64	8.3	0	0	---	0.00	30.312 
20:05	18.4	18.4	18.4	64	8.3	0	0	---	0.00	30.312 
20:10	18.3	18.3	18.3	63	7.8	0	0	---	0.00	30.312 
20:15	18.1	18.1	18.1	63	7.7	0	0	---	0.00	30.306 
20:20	18.1	18.1	18.1	64	8.0	0	0	---	0.00	30.306 
20:25	18.0	18.0	18.0	64	7.9	0	0	---	0.00	30.306 
20:30	17.8	17.8	17.8	64	7.7	0	0	---	0.00	30.307 
20:35	17.7	17.7	17.7	64	7.6	0	0	---	0.00	30.307 
20:40	17.5	17.5	17.5	64	7.4	0	0	---	0.00	30.307 
20:45	17.5	17.5	17.5	65	7.8	0	0	---	0.00	30.307 
20:50	17.3	17.3	17.3	64	7.2	0	0	---	0.00	30.307 
20:55	17.2	17.2	17.2	65	7.5	0	0	---	0.00	30.307 
21:00	17.2	17.2	17.2	65	7.5	0	0	---	0.00	30.307 
21:05	17.0	17.0	17.0	65	7.3	0	0	---	0.00	30.307 
21:10	16.9	16.9	16.9	65	7.2	0	0	---	0.00	30.307 
21:15	16.7	16.7	16.7	65	7.0	0	0	---	0.00	30.304 
21:20	16.7	16.7	16.7	65	7.0	0	0	---	0.00	30.304 
21:25	16.5	16.5	16.5	66	7.2	0	0	---	0.00	30.304 
21:30	16.4	16.4	16.4	66	7.1	0	0	---	0.00	30.305 
21:35	16.2	16.2	16.2	66	6.9	0	0	---	0.00	30.305 
21:40	16.1	16.1	16.1	67	7.1	0	0	---	0.00	30.305 
21:45	15.7	15.7	15.7	67	6.7	0	0	---	0.00	30.306 
21:50	15.6	15.6	15.6	68	7.0	0	0	---	0.00	30.306 
21:55	15.4	15.4	15.4	68	6.8	0	0	---	0.00	30.306 
22:00	15.1	15.1	15.1	69	6.8	0	0	---	0.00	30.308 
22:05	14.9	14.9	14.9	69	6.6	0	0	---	0.00	30.308 
22:10	14.8	14.8	14.8	70	6.8	0	0	---	0.00	30.308 
22:15	14.6	14.6	14.6	71	6.9	0	0	---	0.00	30.312 
22:20	14.4	14.4	14.4	71	6.7	0	0	---	0.00	30.312 
22:25	14.3	14.3	14.3	72	7.0	0	0	---	0.00	30.312 
22:30	14.1	14.1	14.1	72	6.8	0	0	---	0.00	30.309 
22:35	14.0	14.0	14.0	73	7.0	0	0	---	0.00	30.309 
22:40	13.8	13.8	13.8	73	6.8	0	0	---	0.00	30.309 
22:45	13.8	13.8	13.8	74	7.1	0	0	---	0.00	30.308 
22:50	13.6	13.6	13.6	74	6.9	0	0	---	0.00	30.308 
22:55	13.5	13.5	13.5	74	6.8	0	0	---	0.00	30.308 
23:00	13.1	13.1	13.1	75	6.7	0	0	---	0.00	30.307 
23:05	12.9	12.9	12.9	75	6.5	0	0	---	0.00	30.307 
23:10	12.8	12.8	12.8	75	6.4	0	0	---	0.00	30.307 
23:15	12.8	12.8	12.8	76	6.7	0	0	---	0.00	30.298 
23:20	12.6	12.6	12.6	76	6.5	0	0	---	0.00	30.298 
23:25	12.4	12.4	12.4	76	6.3	0	0	---	0.00	30.298 
23:30	12.3	12.3	12.3	77	6.5	0	0	---	0.00	30.297 
23:35	12.1	12.1	12.1	77	6.3	0	0	---	0.00	30.297 
23:40	11.9	11.9	11.9	77	6.1	0	0	---	0.00	30.297 
23:45	11.7	11.7	11.7	77	5.9	0	0	---	0.00	30.295 
23:50	11.7	11.7	11.7	78	6.2	0	0	---	0.00	30.295 
23:55	11.6	11.6	11.6	78	6.1	0	0	---	0.00	30.295 

CoCoRaHS
IN-AL-39
A2 Web Hosting
Creative Commons License
GoDaddy
search engine by freefind advanced

loaded 2018-11-15 18:29:11 • last modified 2010-11-18 10:43:29
Privacy PolicyDisclaimer
• wx.awcolley.com is powered by PmWiki v.2002016 •
• all content (unless otherwise noted) © 2018 A W Colley